Itabira, Brazil
Current Conditions -  °F | °C
As of 7:00 PM on Friday 24 Oct 2014 (Local Time) from SBLS Reporting Station
Few Clouds Few Clouds  
Wind Chill: 81°   Ceiling: Unl
Heat Index: 81°   Visibility: 6mi
Dew Point: 55°   Wind: 13mph
Humidity: 42%   Direction: 130°SE
Pressure: 29.97"   Gusts: NA
Location:  19.62°S, 43.23°W
Report Text: SBLS 242100Z 13011KT 9999 FEW035 27/13 Q1015
Loading
Personal Weather Stations






























Interactive Weather Map
Tropical Storm Tracking
New forecast layout! Learn more

10-Day Weather Forecast

Advertisements
Track Severe Weather on mobile